Main page
METAR-TAF:

METAR-TAF

Airports :

Ilhéus Jorge Amado Airport

Ilhéus, Bahia, Brazil

latitude: 14-49S, longitude: 039-02W, elevation: 4 m

Current weather observation

The report was made 3 hours and 2 minutes ago, at 00:00 UTC
Wind 3 kt from the West
Temperature 22°C
Humidity 100%
Pressure 1020 hPa
Visibility 10 km or more
Scattered clouds at a height of 3000 ft
Scattered clouds at a height of 6000 ft

METAR: SBIL 240000Z 27003KT 9999 SCT030 SCT060 22/22 Q1020

Time: 00:02 (03:02 UTC)

Forecast

The report was made 6 hours and 2 minutes ago, at 21:00 UTC
Forecast valid from 24 at 00 UTC to 24 at 12 UTC
Wind 5 kt from the West/Southwest
Visibility: 8000 m
Scattered clouds at a height of 1500 ft
Scattered clouds at a height of 2500 ft
Temporary
from 24 at 08 UTC to 24 at 11 UTC
Visibility: 5000 m
Broken clouds at a height of 1600 ft
rain showers

TAF: SBIL 232100Z 2400/2412 25005KT 8000 SCT015 SCT025 TN21/2408Z TX23/2411Z TEMPO 2408/2411 5000 SHRA BKN016 RMK PEA

Weather observations and forecasts of more than 4000 airports (METAR and TAF reports).

The available stations are represented by yellow and red dots on the map.

Hover mouse over dot to see the name of the station.

Then click to see weather observations and forecasts.

To change the map : click on the green buttons with a black cross to zoom in, on the green button with a dash to zoom out, or on the green arrows for adjacent maps.


METAR-TAF: